Time;durP1;ratioP1;P1;durP2;ratioP2;P2;SDS_P1;SDS_P2;PMS_P1;PMS_P2;Temp;Humidity;BMP_temperature;BMP_pressure;BME280_temperature;BME280_humidity;BME280_pressure;Samples;Min_cycle;Max_cycle;Signal;HPM_P1;HPM_P2
2023/03/03 00:00:50;;;;;;;50.53;19.83;;;2.00;1.00;;;;;;6219671;22;20018;-78
2023/03/03 00:03:20;;;;;;;53.38;20.00;;;2.10;1.00;;;;;;6245469;22;20099;-79
2023/03/03 00:05:45;;;;;;;49.95;18.90;;;2.00;1.00;;;;;;6245869;22;20020;-78
2023/03/03 00:08:11;;;;;;;57.85;21.48;;;2.10;1.00;;;;;;6244444;22;20056;-85
2023/03/03 00:10:38;;;;;;;56.50;19.73;;;2.10;1.00;;;;;;6245550;22;20043;-79
2023/03/03 00:13:12;;;;;;;55.33;20.65;;;1.90;1.00;;;;;;6222260;22;20031;-78
2023/03/03 00:15:37;;;;;;;60.63;20.70;;;2.10;1.00;;;;;;6274043;22;20028;-78
2023/03/03 00:18:28;;;;;;;61.30;21.45;;;2.10;1.00;;;;;;6247260;22;20081;-78
2023/03/03 00:20:57;;;;;;;63.20;20.98;;;2.10;1.00;;;;;;6246714;22;20107;-78
2023/03/03 00:23:23;;;;;;;60.22;20.08;;;2.10;1.00;;;;;;6246502;22;20023;-78
2023/03/03 00:25:51;;;;;;;65.03;21.65;;;2.20;1.00;;;;;;6245359;22;20609;-79
2023/03/03 00:28:29;;;;;;;69.60;21.80;;;2.10;1.00;;;;;;6245014;22;20099;-79
2023/03/03 00:30:58;;;;;;;64.88;20.13;;;2.20;1.00;;;;;;6245361;22;20023;-78
2023/03/03 00:33:32;;;;;;;66.07;21.83;;;2.20;1.00;;;;;;6272349;22;20434;-79
2023/03/03 00:36:14;;;;;;;62.40;20.70;;;2.20;1.00;;;;;;6245722;22;20015;-81
2023/03/03 00:38:39;;;;;;;55.97;19.05;;;2.20;1.00;;;;;;6244597;22;20016;-80
2023/03/03 00:41:25;;;;;;;64.28;19.77;;;2.20;1.00;;;;;;6219997;22;20020;-78
2023/03/03 00:43:51;;;;;;;62.17;19.17;;;2.20;1.00;;;;;;6244851;22;20012;-78
2023/03/03 00:46:19;;;;;;;55.15;16.98;;;2.20;1.00;;;;;;6219590;22;20023;-82
2023/03/03 00:48:47;;;;;;;65.20;17.38;;;2.30;1.00;;;;;;6245132;22;20019;-79
2023/03/03 00:51:21;;;;;;;61.03;18.73;;;2.20;1.00;;;;;;6219978;22;20031;-79
2023/03/03 00:53:48;;;;;;;51.67;17.08;;;2.20;1.00;;;;;;6243310;22;20508;-78
2023/03/03 00:56:14;;;;;;;67.20;17.70;;;2.20;1.00;;;;;;6219755;22;20102;-78
2023/03/03 00:58:39;;;;;;;70.03;18.08;;;2.20;1.00;;;;;;6218849;22;20462;-79
2023/03/03 01:01:05;;;;;;;70.38;19.35;;;2.20;1.00;;;;;;6243654;22;20020;-78
2023/03/03 01:03:31;;;;;;;70.35;17.67;;;2.20;1.00;;;;;;6243843;22;20032;-79
2023/03/03 01:05:57;;;;;;;69.75;18.17;;;2.20;1.00;;;;;;6219136;22;20085;-83
2023/03/03 01:08:23;;;;;;;95.35;19.52;;;2.40;1.00;;;;;;6245535;22;20399;-78
2023/03/03 01:10:52;;;;;;;98.20;20.38;;;2.50;1.00;;;;;;6246159;22;20328;-78
2023/03/03 01:13:19;;;;;;;129.20;23.95;;;2.20;1.00;;;;;;6246028;22;20450;-78
2023/03/03 01:15:45;;;;;;;81.13;20.30;;;2.20;1.00;;;;;;6244893;22;20019;-79
2023/03/03 01:18:11;;;;;;;97.70;22.83;;;2.20;1.00;;;;;;6244512;22;20435;-86
2023/03/03 01:20:38;;;;;;;90.32;23.45;;;2.20;1.00;;;;;;6242436;22;20024;-79
2023/03/03 01:23:04;;;;;;;95.65;22.63;;;2.20;1.00;;;;;;6245931;22;20019;-78
2023/03/03 01:25:30;;;;;;;103.18;23.52;;;2.20;1.00;;;;;;6218253;22;20011;-79
2023/03/03 01:27:56;;;;;;;114.05;23.63;;;2.20;1.00;;;;;;6244672;22;20031;-79
2023/03/03 01:30:24;;;;;;;91.57;22.02;;;2.10;1.00;;;;;;6220043;22;20093;-84
2023/03/03 01:32:49;;;;;;;119.95;23.58;;;2.20;1.00;;;;;;6246267;22;20032;-79
2023/03/03 01:35:15;;;;;;;117.88;23.55;;;2.20;1.00;;;;;;6219432;22;20472;-82
2023/03/03 01:37:41;;;;;;;114.60;21.02;;;2.50;1.00;;;;;;6245265;22;20098;-88
2023/03/03 01:40:16;;;;;;;98.85;22.08;;;2.40;1.00;;;;;;6219207;22;20417;-79
2023/03/03 01:42:42;;;;;;;144.90;26.43;;;2.20;1.00;;;;;;6219219;22;20068;-78
2023/03/03 01:45:16;;;;;;;123.85;24.63;;;2.60;1.00;;;;;;6245728;22;20254;-78
2023/03/03 01:47:52;;;;;;;217.25;28.98;;;2.20;1.00;;;;;;6219069;22;20027;-78
2023/03/03 01:50:30;;;;;;;151.32;22.15;;;2.20;1.00;;;;;;6271301;22;20095;-78
2023/03/03 01:53:00;;;;;;;133.48;20.38;;;2.30;1.00;;;;;;6220264;22;20102;-78
2023/03/03 01:55:33;;;;;;;129.93;21.38;;;2.20;1.00;;;;;;6243437;22;20015;-84
2023/03/03 01:58:11;;;;;;;125.50;22.85;;;2.20;1.00;;;;;;6218446;22;20062;-79
2023/03/03 02:00:39;;;;;;;103.93;23.85;;;2.30;1.00;;;;;;6242598;22;20316;-79
2023/03/03 02:03:05;;;;;;;199.77;26.60;;;2.30;1.00;;;;;;6219444;22;20028;-78
2023/03/03 02:05:32;;;;;;;157.25;22.40;;;2.20;1.00;;;;;;6244312;22;20038;-79
2023/03/03 02:07:58;;;;;;;156.60;22.20;;;2.20;1.00;;;;;;6245815;22;20058;-78
2023/03/03 02:10:23;;;;;;;131.88;21.05;;;2.70;1.00;;;;;;6245081;22;20015;-78
2023/03/03 02:12:55;;;;;;;117.53;19.35;;;2.30;1.00;;;;;;6272521;22;20031;-79
2023/03/03 02:15:25;;;;;;;166.57;19.60;;;2.30;1.00;;;;;;6245139;22;20023;-78
2023/03/03 02:18:00;;;;;;;148.55;20.33;;;2.30;1.00;;;;;;6244731;22;20023;-78
2023/03/03 02:20:29;;;;;;;179.57;23.35;;;2.30;1.00;;;;;;6244684;22;20019;-79
2023/03/03 02:23:28;;;;;;;135.00;19.83;;;2.30;1.00;;;;;;6245085;22;20034;-78
2023/03/03 02:25:57;;;;;;;236.77;24.48;;;2.30;1.00;;;;;;6219741;22;20023;-79
2023/03/03 02:28:28;;;;;;;197.30;22.95;;;2.50;1.00;;;;;;6219312;22;20019;-81
2023/03/03 02:30:56;;;;;;;156.00;20.42;;;2.30;1.00;;;;;;6270551;22;20097;-80
2023/03/03 02:33:22;;;;;;;144.50;20.27;;;2.30;1.00;;;;;;6271780;22;20026;-78
2023/03/03 02:35:48;;;;;;;232.90;23.88;;;2.20;1.00;;;;;;6244907;22;20020;-78
2023/03/03 02:38:23;;;;;;;232.05;21.83;;;2.40;1.00;;;;;;6245422;22;20020;-85
2023/03/03 02:41:02;;;;;;;134.00;19.10;;;2.20;1.00;;;;;;6272462;22;20096;-78
2023/03/03 02:43:44;;;;;;;139.23;18.60;;;2.30;1.00;;;;;;6245001;22;20047;-83
2023/03/03 02:46:09;;;;;;;115.13;17.92;;;2.30;1.00;;;;;;6244875;22;20047;-80
2023/03/03 02:48:35;;;;;;;110.85;18.95;;;2.20;1.00;;;;;;6218317;22;20027;-81
2023/03/03 02:51:01;;;;;;;92.78;17.42;;;2.10;1.00;;;;;;6243492;22;20504;-86
2023/03/03 02:53:26;;;;;;;88.40;16.52;;;2.30;1.00;;;;;;6244008;22;20138;-80
2023/03/03 02:55:52;;;;;;;78.95;15.73;;;2.20;1.00;;;;;;6243727;22;20485;-79
2023/03/03 02:58:18;;;;;;;103.22;16.77;;;2.30;1.00;;;;;;6242681;22;20138;-78
2023/03/03 03:00:46;;;;;;;86.80;14.25;;;2.30;1.00;;;;;;6217988;22;20105;-84
2023/03/03 03:03:12;;;;;;;85.35;13.02;;;2.20;1.00;;;;;;6247170;22;20058;-80
2023/03/03 03:05:38;;;;;;;81.07;11.77;;;2.20;1.00;;;;;;6245643;22;20038;-83
2023/03/03 03:08:04;;;;;;;96.65;12.68;;;2.10;1.00;;;;;;6244760;22;20320;-79
2023/03/03 03:10:30;;;;;;;70.18;12.50;;;2.30;1.00;;;;;;6220196;22;20055;-80
2023/03/03 03:12:55;;;;;;;82.47;12.95;;;2.20;1.00;;;;;;6220204;22;20019;-80
2023/03/03 03:15:21;;;;;;;83.53;12.38;;;2.30;1.00;;;;;;6196882;22;20024;-79
2023/03/03 03:17:47;;;;;;;103.40;13.18;;;2.40;1.00;;;;;;6246553;22;20027;-80
2023/03/03 03:20:13;;;;;;;178.10;18.10;;;2.30;1.00;;;;;;6246346;22;20019;-80
2023/03/03 03:22:38;;;;;;;195.15;17.67;;;2.20;1.00;;;;;;6221263;22;20098;-86
2023/03/03 03:25:04;;;;;;;196.00;17.75;;;2.30;1.00;;;;;;6247628;22;20097;-82
2023/03/03 03:27:30;;;;;;;117.72;15.82;;;2.30;1.00;;;;;;6273863;22;20020;-80
2023/03/03 03:29:56;;;;;;;211.77;20.17;;;2.30;1.00;;;;;;6246638;22;20019;-80
2023/03/03 03:32:21;;;;;;;184.02;18.90;;;2.30;1.00;;;;;;6220826;22;20019;-82
2023/03/03 03:34:47;;;;;;;147.70;18.60;;;2.40;1.00;;;;;;6221421;22;20016;-80
2023/03/03 03:37:13;;;;;;;304.58;25.52;;;2.30;1.00;;;;;;6247334;22;20343;-80
2023/03/03 03:39:39;;;;;;;148.32;18.00;;;2.00;1.00;;;;;;6221487;22;20030;-79
2023/03/03 03:42:04;;;;;;;231.68;22.88;;;2.30;1.00;;;;;;6246545;22;20020;-84
2023/03/03 03:44:30;;;;;;;266.27;23.02;;;2.20;1.00;;;;;;6245400;22;20016;-80
2023/03/03 03:46:56;;;;;;;283.02;26.58;;;2.20;1.00;;;;;;6219356;22;20088;-79
2023/03/03 03:49:21;;;;;;;244.68;21.73;;;2.20;1.00;;;;;;6220202;22;20379;-79
2023/03/03 03:51:47;;;;;;;204.00;18.95;;;2.20;1.00;;;;;;6195067;22;20020;-79
2023/03/03 03:54:13;;;;;;;213.77;18.92;;;2.20;1.00;;;;;;6244713;22;20334;-80
2023/03/03 03:56:38;;;;;;;125.32;16.33;;;2.20;1.00;;;;;;6245425;22;20027;-79
2023/03/03 03:59:07;;;;;;;150.32;16.73;;;2.10;1.00;;;;;;6192221;22;20015;-81
2023/03/03 04:01:33;;;;;;;172.02;16.38;;;2.10;1.00;;;;;;6195070;22;20050;-82
2023/03/03 04:03:59;;;;;;;161.85;16.15;;;2.10;1.00;;;;;;6244657;22;20495;-85
2023/03/03 04:06:24;;;;;;;131.93;14.30;;;2.00;1.00;;;;;;6246387;22;20098;-79
2023/03/03 04:08:50;;;;;;;126.45;14.50;;;2.00;1.00;;;;;;6273541;22;20023;-79
2023/03/03 04:11:16;;;;;;;118.55;13.15;;;2.00;1.00;;;;;;6221532;22;20015;-79
2023/03/03 04:13:42;;;;;;;151.05;16.50;;;2.00;1.00;;;;;;6246622;22;20019;-79
2023/03/03 04:16:08;;;;;;;111.93;14.80;;;1.70;1.00;;;;;;6245242;22;20394;-81
2023/03/03 04:18:34;;;;;;;136.80;14.50;;;1.90;1.00;;;;;;6272952;22;20027;-79
2023/03/03 04:21:00;;;;;;;132.80;15.77;;;1.90;1.00;;;;;;6195280;22;20116;-82
2023/03/03 04:23:25;;;;;;;124.25;15.13;;;1.90;1.00;;;;;;6273597;22;20027;-79
2023/03/03 04:25:51;;;;;;;215.82;19.02;;;1.90;1.00;;;;;;6220871;22;20098;-79
2023/03/03 04:28:17;;;;;;;186.57;17.60;;;1.90;1.00;;;;;;6274400;22;20020;-79
2023/03/03 04:30:44;;;;;;;164.07;16.63;;;1.90;1.00;;;;;;6246841;22;20027;-79
2023/03/03 04:33:10;;;;;;;172.80;17.67;;;1.80;1.00;;;;;;6246983;22;20127;-79
2023/03/03 04:35:35;;;;;;;132.05;16.25;;;1.90;1.00;;;;;;6246570;22;20051;-80
2023/03/03 04:38:01;;;;;;;206.32;19.17;;;1.90;1.00;;;;;;6196553;22;20019;-79
2023/03/03 04:40:27;;;;;;;195.25;16.55;;;2.00;1.00;;;;;;6246504;22;20321;-79
2023/03/03 04:42:52;;;;;;;144.82;15.15;;;1.90;1.00;;;;;;6273009;22;20070;-79
2023/03/03 04:45:18;;;;;;;166.35;14.95;;;1.80;1.00;;;;;;6195998;22;20023;-79
2023/03/03 04:47:44;;;;;;;197.90;15.10;;;1.70;1.00;;;;;;6246353;22;20026;-79
2023/03/03 04:50:10;;;;;;;208.73;15.05;;;1.80;1.00;;;;;;6245524;22;20712;-79
2023/03/03 04:52:36;;;;;;;190.80;14.75;;;1.70;1.00;;;;;;6221616;22;20020;-79
2023/03/03 04:55:02;;;;;;;244.27;18.20;;;1.70;1.00;;;;;;6245275;22;20028;-79
2023/03/03 04:57:27;;;;;;;210.35;17.08;;;1.70;1.00;;;;;;6246434;22;20016;-79
2023/03/03 04:59:53;;;;;;;190.93;13.88;;;1.70;1.00;;;;;;6244449;22;20343;-82
2023/03/03 05:02:19;;;;;;;205.80;15.40;;;1.60;1.00;;;;;;6245484;22;20043;-79
2023/03/03 05:04:45;;;;;;;156.77;12.73;;;1.80;1.00;;;;;;6245615;22;20459;-80
2023/03/03 05:07:10;;;;;;;132.65;12.30;;;1.60;1.00;;;;;;6219332;22;20011;-80
2023/03/03 05:09:36;;;;;;;107.15;12.02;;;1.50;1.00;;;;;;6217951;22;20055;-80
2023/03/03 05:12:05;;;;;;;115.15;11.82;;;1.50;1.00;;;;;;6194677;22;20020;-79
2023/03/03 05:14:31;;;;;;;157.60;13.05;;;1.50;1.00;;;;;;6221148;22;20398;-79
2023/03/03 05:16:56;;;;;;;210.02;15.90;;;1.50;1.00;;;;;;6220342;22;20047;-81
2023/03/03 05:19:23;;;;;;;188.02;14.48;;;1.50;1.00;;;;;;6218954;22;20094;-79
2023/03/03 05:21:48;;;;;;;253.70;16.40;;;1.40;1.00;;;;;;6219391;22;20023;-81
2023/03/03 05:24:14;;;;;;;176.73;14.25;;;1.40;1.00;;;;;;6244503;22;20493;-81
2023/03/03 05:26:40;;;;;;;212.23;15.88;;;1.40;1.00;;;;;;6244872;22;20031;-80
2023/03/03 05:29:07;;;;;;;126.43;11.90;;;1.40;1.00;;;;;;6243705;22;20019;-79
2023/03/03 05:31:33;;;;;;;132.15;12.07;;;1.40;1.00;;;;;;6244510;22;20208;-79
2023/03/03 05:33:59;;;;;;;221.90;16.23;;;1.30;1.00;;;;;;6217453;22;20123;-80
2023/03/03 05:36:25;;;;;;;240.43;14.85;;;1.30;1.00;;;;;;6244792;22;20107;-81
2023/03/03 05:38:51;;;;;;;212.35;14.05;;;1.20;1.00;;;;;;6243432;22;20427;-79
2023/03/03 05:41:16;;;;;;;138.68;11.63;;;1.10;1.00;;;;;;6244210;22;20066;-81
2023/03/03 05:43:42;;;;;;;288.15;17.27;;;1.10;1.00;;;;;;6218608;22;20070;-80
2023/03/03 05:46:09;;;;;;;83.00;9.55;;;1.10;1.00;;;;;;6241774;22;20593;-78
2023/03/03 05:48:34;;;;;;;203.90;13.35;;;1.10;1.00;;;;;;6244160;22;20435;-78
2023/03/03 05:51:00;;;;;;;142.60;12.35;;;1.00;1.00;;;;;;6218533;22;20026;-80
2023/03/03 05:53:27;;;;;;;118.70;11.07;;;1.10;1.00;;;;;;6244857;22;20099;-79
2023/03/03 05:55:54;;;;;;;180.60;13.40;;;1.00;1.00;;;;;;6243797;22;20019;-85
2023/03/03 05:58:20;;;;;;;146.18;11.52;;;1.00;1.00;;;;;;6242076;22;20062;-81
2023/03/03 06:00:47;;;;;;;167.25;14.23;;;1.30;1.00;;;;;;6217445;22;20015;-82
2023/03/03 06:03:12;;;;;;;146.80;14.02;;;1.10;1.00;;;;;;6218483;22;20019;-80
2023/03/03 06:05:38;;;;;;;143.52;14.07;;;1.10;1.00;;;;;;6244931;22;20024;-78
2023/03/03 06:08:04;;;;;;;230.43;17.27;;;0.90;1.00;;;;;;6270562;22;20058;-85
2023/03/03 06:10:30;;;;;;;163.93;15.00;;;1.00;1.00;;;;;;6243092;22;20347;-85
2023/03/03 06:12:55;;;;;;;167.80;14.40;;;1.20;1.00;;;;;;6244031;22;20016;-86
2023/03/03 06:15:23;;;;;;;220.13;16.48;;;1.10;1.00;;;;;;6243921;22;20024;-80
2023/03/03 06:17:48;;;;;;;209.80;16.13;;;1.40;1.00;;;;;;6244828;22;20111;-83
2023/03/03 06:20:14;;;;;;;125.72;14.13;;;0.90;1.00;;;;;;6271796;22;20074;-82
2023/03/03 06:22:40;;;;;;;160.98;15.43;;;0.90;1.00;;;;;;6243149;22;20016;-82
2023/03/03 06:25:06;;;;;;;205.20;16.52;;;0.60;1.00;;;;;;6244815;22;20014;-85
2023/03/03 06:27:32;;;;;;;206.07;18.05;;;0.90;1.00;;;;;;6244690;22;20030;-81
2023/03/03 06:29:57;;;;;;;323.23;19.23;;;0.90;1.70;;;;;;6193823;22;20012;-81
2023/03/03 06:32:23;;;;;;;188.68;15.55;;;0.90;5.80;;;;;;6244671;22;20046;-82
2023/03/03 06:34:49;;;;;;;270.88;20.27;;;0.90;7.00;;;;;;6245451;22;20020;-80
2023/03/03 06:37:15;;;;;;;199.35;15.75;;;1.40;9.30;;;;;;6243607;22;20469;-82
2023/03/03 06:39:40;;;;;;;206.45;17.02;;;1.00;11.20;;;;;;6219859;22;20019;-81
2023/03/03 06:42:08;;;;;;;164.57;16.23;;;1.00;12.90;;;;;;6244946;22;20093;-86
2023/03/03 06:44:34;;;;;;;224.02;16.75;;;1.00;14.10;;;;;;6245762;22;20058;-82
2023/03/03 06:47:00;;;;;;;225.40;18.63;;;1.10;15.40;;;;;;6219167;22;20050;-81
2023/03/03 06:49:26;;;;;;;200.77;17.75;;;1.10;16.50;;;;;;6244810;22;20020;-81
2023/03/03 06:51:52;;;;;;;188.88;17.83;;;1.20;17.10;;;;;;6244938;22;20026;-82
2023/03/03 06:54:22;;;;;;;154.05;16.50;;;1.20;17.70;;;;;;6245603;22;20024;-78
2023/03/03 06:56:50;;;;;;;199.80;18.63;;;1.20;19.80;;;;;;6272336;22;20020;-80
2023/03/03 06:59:18;;;;;;;191.38;17.85;;;1.20;22.20;;;;;;6243697;22;20018;-83
2023/03/03 07:01:46;;;;;;;150.05;15.70;;;1.50;23.30;;;;;;6242483;22;20526;-82
2023/03/03 07:04:30;;;;;;;181.68;17.55;;;1.30;24.80;;;;;;6244461;22;20024;-85
2023/03/03 07:07:17;;;;;;;182.80;17.10;;;1.30;25.80;;;;;;6244539;22;20115;-82
2023/03/03 07:09:45;;;;;;;167.90;18.17;;;1.40;26.60;;;;;;6244458;22;20011;-82
2023/03/03 07:12:24;;;;;;;177.23;17.20;;;1.20;27.30;;;;;;6219185;22;20042;-85
2023/03/03 07:14:55;;;;;;;110.13;13.63;;;1.50;27.70;;;;;;6243980;22;20074;-82
2023/03/03 07:17:24;;;;;;;104.05;14.65;;;1.60;26.90;;;;;;6244429;22;20054;-82
2023/03/03 07:19:50;;;;;;;188.82;18.10;;;1.60;27.50;;;;;;6271722;22;20062;-82
2023/03/03 07:22:23;;;;;;;170.63;15.77;;;1.60;27.50;;;;;;6244198;22;20016;-82
2023/03/03 07:24:52;;;;;;;198.85;18.05;;;1.70;28.40;;;;;;6244495;22;20099;-82
2023/03/03 07:27:21;;;;;;;240.25;34.05;;;1.70;30.00;;;;;;6219010;22;20038;-82
2023/03/03 07:29:48;;;;;;;200.48;28.15;;;1.80;31.40;;;;;;6245049;22;20023;-81
2023/03/03 07:32:20;;;;;;;210.70;31.65;;;1.90;33.00;;;;;;6193942;22;20051;-85
2023/03/03 07:34:49;;;;;;;211.30;26.52;;;2.00;33.90;;;;;;6244670;22;20466;-82
2023/03/03 07:37:27;;;;;;;138.45;26.60;;;2.20;33.30;;;;;;6243922;22;20055;-84
2023/03/03 07:39:53;;;;;;;165.30;18.30;;;2.10;31.70;;;;;;6271753;22;20020;-82
2023/03/03 07:42:22;;;;;;;121.28;14.90;;;2.20;31.20;;;;;;6218637;22;20023;-82
2023/03/03 07:44:52;;;;;;;120.55;18.20;;;2.10;29.90;;;;;;6244708;22;20099;-82
2023/03/03 07:47:33;;;;;;;93.88;14.68;;;2.20;27.70;;;;;;6219258;22;20051;-83
2023/03/03 07:50:07;;;;;;;130.93;14.85;;;2.20;25.30;;;;;;6221025;22;20015;-82
2023/03/03 07:52:40;;;;;;;144.77;17.67;;;2.10;25.40;;;;;;6245678;22;20026;-81
2023/03/03 07:55:31;;;;;;;94.10;13.77;;;2.40;27.10;;;;;;6246161;22;20015;-82
2023/03/03 07:58:11;;;;;;;90.97;17.50;;;2.50;28.20;;;;;;6220983;22;20020;-82
2023/03/03 08:01:14;;;;;;;99.05;13.65;;;2.50;25.90;;;;;;6245479;22;20016;-81
2023/03/03 08:03:43;;;;;;;134.13;15.98;;;2.50;23.70;;;;;;6245585;22;20015;-80
2023/03/03 08:06:29;;;;;;;84.70;14.55;;;2.40;21.30;;;;;;6221340;22;20518;-81
2023/03/03 08:09:20;;;;;;;119.97;17.20;;;2.70;22.70;;;;;;6219933;22;20454;-82
2023/03/03 08:12:21;;;;;;;52.47;12.07;;;2.50;23.20;;;;;;6244464;22;20058;-82
2023/03/03 08:14:49;;;;;;;120.03;15.07;;;2.70;14.70;;;;;;6172638;22;20618;-82
2023/03/03 08:17:23;;;;;;;93.10;12.45;;;2.80;14.80;;;;;;6273518;22;20024;-82
2023/03/03 08:19:51;;;;;;;65.40;11.43;;;2.70;9.30;;;;;;6273078;22;20098;-83
2023/03/03 08:22:23;;;;;;;128.75;16.35;;;2.80;10.40;;;;;;6221088;22;20067;-82
2023/03/03 08:24:50;;;;;;;54.63;11.20;;;2.90;4.00;;;;;;6220242;22;20016;-82
2023/03/03 08:27:16;;;;;;;126.03;13.43;;;3.00;10.00;;;;;;6221029;22;20475;-82
2023/03/03 08:29:41;;;;;;;126.10;13.65;;;3.20;11.20;;;;;;6219795;22;20043;-82
2023/03/03 08:32:07;;;;;;;72.70;13.73;;;3.20;1.00;;;;;;6196021;22;20423;-82
2023/03/03 08:34:33;;;;;;;103.88;12.20;;;3.10;1.00;;;;;;6245362;22;20019;-82
2023/03/03 08:36:58;;;;;;;104.18;13.10;;;3.40;1.00;;;;;;6220850;22;20008;-82
2023/03/03 08:39:24;;;;;;;64.78;10.85;;;3.20;1.00;;;;;;6219888;22;20374;-85
2023/03/03 08:41:50;;;;;;;47.40;10.02;;;3.50;1.00;;;;;;6246194;22;20058;-83
2023/03/03 08:44:15;;;;;;;47.53;10.85;;;3.90;1.80;;;;;;6219008;22;20395;-82
2023/03/03 08:46:42;;;;;;;26.45;9.07;;;4.20;1.00;;;;;;6245112;22;20019;-82
2023/03/03 08:49:08;;;;;;;17.42;7.70;;;4.40;1.00;;;;;;6244829;22;20015;-82
2023/03/03 08:51:34;;;;;;;30.08;8.95;;;4.30;1.00;;;;;;6219586;22;20020;-82
2023/03/03 08:54:00;;;;;;;22.70;9.02;;;4.20;1.00;;;;;;6245684;22;20035;-83
2023/03/03 08:56:25;;;;;;;18.08;8.13;;;4.10;1.00;;;;;;6244744;22;20020;-86
2023/03/03 08:58:51;;;;;;;17.83;7.18;;;4.00;1.00;;;;;;6219603;22;20019;-82
2023/03/03 09:01:17;;;;;;;18.70;7.38;;;3.90;1.00;;;;;;6245529;22;20015;-82
2023/03/03 09:03:43;;;;;;;16.15;7.00;;;3.80;1.00;;;;;;6244762;22;20061;-82
2023/03/03 09:06:10;;;;;;;15.45;7.13;;;3.70;1.00;;;;;;6246047;22;20055;-83
2023/03/03 09:08:36;;;;;;;16.67;7.35;;;3.60;1.00;;;;;;6244605;22;20022;-82
2023/03/03 09:11:08;;;;;;;17.27;7.10;;;3.60;1.00;;;;;;6220597;22;20434;-83
2023/03/03 09:13:33;;;;;;;18.05;7.55;;;3.50;1.00;;;;;;6244765;22;20099;-82
2023/03/03 09:15:59;;;;;;;21.27;8.18;;;3.40;1.00;;;;;;6245309;22;20077;-83
2023/03/03 09:18:34;;;;;;;17.38;7.70;;;3.40;1.00;;;;;;6245435;22;20099;-84
2023/03/03 09:21:00;;;;;;;17.38;7.55;;;3.50;1.00;;;;;;6245775;22;20023;-82
2023/03/03 09:23:42;;;;;;;13.38;7.40;;;3.50;1.00;;;;;;6219961;22;20023;-82
2023/03/03 09:26:26;;;;;;;12.43;6.28;;;3.50;1.00;;;;;;6220291;22;20020;-82
2023/03/03 09:29:12;;;;;;;14.80;7.40;;;3.50;1.00;;;;;;6219434;22;20049;-82
2023/03/03 09:31:58;;;;;;;14.60;7.55;;;4.30;1.00;;;;;;6223346;22;20457;-83
2023/03/03 09:34:36;;;;;;;16.10;7.20;;;3.60;1.00;;;;;;6220566;22;20015;-82
2023/03/03 09:37:12;;;;;;;13.68;7.70;;;3.50;1.00;;;;;;6245515;22;20030;-81
2023/03/03 09:39:38;;;;;;;10.88;6.80;;;3.80;1.00;;;;;;6244398;22;20020;-82
2023/03/03 09:42:19;;;;;;;10.90;6.72;;;3.70;1.00;;;;;;6245323;22;20027;-82
2023/03/03 09:45:17;;;;;;;14.23;6.95;;;4.00;1.00;;;;;;6244678;22;20019;-83
2023/03/03 09:47:51;;;;;;;11.70;6.75;;;4.00;1.00;;;;;;6271251;22;20669;-82
2023/03/03 09:50:29;;;;;;;11.77;7.00;;;4.00;1.00;;;;;;6220156;22;20023;-83
2023/03/03 09:53:19;;;;;;;11.38;6.50;;;4.00;1.00;;;;;;6244417;22;20023;-82
2023/03/03 09:56:08;;;;;;;11.40;6.18;;;4.00;1.00;;;;;;6244883;22;20023;-82
2023/03/03 09:58:44;;;;;;;9.38;6.10;;;4.10;1.00;;;;;;6219587;22;20027;-85
2023/03/03 10:01:29;;;;;;;10.88;6.57;;;4.20;1.00;;;;;;6245087;22;20062;-83
2023/03/03 10:04:04;;;;;;;11.88;5.78;;;4.50;1.00;;;;;;6244510;22;20079;-82
2023/03/03 10:06:36;;;;;;;10.55;6.10;;;4.50;1.00;;;;;;6245410;22;20072;-83
2023/03/03 10:09:15;;;;;;;9.70;6.20;;;4.60;1.00;;;;;;6272352;22;20069;-82
2023/03/03 10:12:03;;;;;;;8.30;5.28;;;4.70;1.00;;;;;;6244140;22;20023;-83
2023/03/03 10:14:58;;;;;;;11.57;5.80;;;4.80;1.00;;;;;;6272194;22;20262;-84
2023/03/03 10:17:29;;;;;;;9.15;6.00;;;4.80;1.00;;;;;;6245255;22;20055;-83
2023/03/03 10:20:16;;;;;;;8.85;5.15;;;4.90;1.00;;;;;;6218637;22;20080;-83
2023/03/03 10:22:52;;;;;;;9.30;5.32;;;5.10;1.00;;;;;;6244096;22;20016;-83
2023/03/03 10:25:18;;;;;;;10.30;5.63;;;5.20;1.00;;;;;;6245057;22;20016;-83
2023/03/03 10:28:08;;;;;;;9.30;5.40;;;5.30;99.90;;;;;;6244027;22;20024;-83
2023/03/03 10:30:52;;;;;;;10.70;5.18;;;5.50;99.90;;;;;;6219442;22;20016;-84
2023/03/03 10:33:46;;;;;;;8.32;5.55;;;5.60;99.90;;;;;;6245101;22;20023;-82
2023/03/03 10:36:12;;;;;;;8.32;5.28;;;5.80;99.90;;;;;;6245010;22;20016;-83
2023/03/03 10:38:50;;;;;;;7.88;4.63;;;6.00;99.90;;;;;;6219537;22;20057;-85
2023/03/03 10:41:28;;;;;;;6.35;4.68;;;6.20;99.90;;;;;;6245127;22;20074;-82
2023/03/03 10:44:08;;;;;;;7.05;4.70;;;6.30;99.90;;;;;;6243929;22;20020;-82
2023/03/03 10:46:45;;;;;;;8.52;4.78;;;6.50;99.90;;;;;;6245072;22;20051;-82
2023/03/03 10:49:38;;;;;;;6.38;4.50;;;6.70;99.90;;;;;;6244951;22;20023;-82
2023/03/03 10:52:13;;;;;;;6.22;3.90;;;6.80;99.90;;;;;;6244251;22;20067;-83
2023/03/03 10:55:14;;;;;;;7.77;4.67;;;7.00;99.90;;;;;;6219205;22;20054;-83
2023/03/03 10:57:42;;;;;;;8.23;3.72;;;7.30;99.90;;;;;;6222752;22;20247;-83
2023/03/03 11:00:18;;;;;;;7.88;4.63;;;7.50;99.90;;;;;;6244815;22;20023;-82
2023/03/03 11:02:53;;;;;;;7.25;4.10;;;7.70;99.90;;;;;;6244056;22;20016;-87
2023/03/03 11:05:25;;;;;;;40.42;33.03;;;7.80;18.30;;;;;;6219732;22;20055;-81
2023/03/03 11:08:03;;;;;;;14.80;10.38;;;7.90;99.90;;;;;;6243926;22;20024;-82
2023/03/03 11:10:51;;;;;;;6.90;4.05;;;8.10;99.90;;;;;;6219412;22;20135;-84
2023/03/03 11:13:31;;;;;;;9.40;3.10;;;8.20;1.00;;;;;;6219319;22;20024;-83
2023/03/03 11:16:17;;;;;;;7.30;3.60;;;8.30;31.20;;;;;;6219047;22;20050;-83
2023/03/03 11:18:51;;;;;;;29.25;18.00;;;8.40;1.00;;;;;;6244961;22;20069;-81
2023/03/03 11:21:26;;;;;;;7.05;3.65;;;8.50;1.00;;;;;;6244646;22;20347;-81
2023/03/03 11:24:12;;;;;;;11.68;5.40;;;8.70;99.90;;;;;;6246182;22;20024;-81
2023/03/03 11:26:58;;;;;;;56.38;25.45;;;8.80;1.00;;;;;;6247077;22;20078;-81
2023/03/03 11:29:46;;;;;;;48.65;23.55;;;8.90;1.00;;;;;;6246571;22;20024;-83
2023/03/03 11:32:56;;;;;;;29.02;13.32;;;9.00;1.00;;;;;;6246507;22;20141;-82
2023/03/03 11:35:36;;;;;;;6.50;3.80;;;9.10;1.00;;;;;;6176758;22;20435;-82
2023/03/03 11:38:05;;;;;;;19.17;8.30;;;9.30;99.90;;;;;;6273360;22;20031;-82
2023/03/03 11:41:14;;;;;;;9.70;4.40;;;9.40;1.00;;;;;;6246241;22;20016;-82
2023/03/03 11:43:46;;;;;;;7.38;2.90;;;9.60;1.00;;;;;;6166866;22;20439;-82
2023/03/03 11:46:21;;;;;;;13.60;5.20;;;9.70;99.90;;;;;;6246361;22;20514;-82
2023/03/03 11:49:02;;;;;;;16.15;6.97;;;9.70;99.90;;;;;;6246576;22;20020;-83
2023/03/03 11:51:33;;;;;;;8.00;4.57;;;9.80;99.90;;;;;;6246275;22;20027;-82
2023/03/03 11:54:07;;;;;;;24.88;15.05;;;10.00;99.90;;;;;;6245630;22;20086;-83
2023/03/03 11:56:44;;;;;;;6.47;3.50;;;10.10;99.90;;;;;;6246045;22;20454;-82
2023/03/03 11:59:35;;;;;;;7.15;3.85;;;10.20;99.90;;;;;;6245667;22;20012;-82
2023/03/03 12:02:30;;;;;;;3.88;2.30;;;10.10;99.90;;;;;;6272722;22;20447;-82
2023/03/03 12:05:09;;;;;;;3.28;1.70;;;10.10;99.90;;;;;;6272495;22;20015;-81
2023/03/03 12:07:50;;;;;;;7.05;2.65;;;10.20;99.90;;;;;;6246205;22;20020;-83
2023/03/03 12:10:35;;;;;;;6.63;1.85;;;10.20;99.90;;;;;;6245525;22;20024;-81
2023/03/03 12:13:25;;;;;;;7.03;2.50;;;10.30;99.90;;;;;;6234482;23;20047;-81
2023/03/03 12:16:18;;;;;;;4.47;1.05;;;10.40;99.90;;;;;;6211681;23;20020;-87
2023/03/03 12:19:04;;;;;;;3.47;1.60;;;10.30;8.70;;;;;;6209900;23;20026;-77
2023/03/03 12:22:02;;;;;;;3.40;1.50;;;10.10;77.60;;;;;;6211883;23;20024;-78
2023/03/03 12:24:46;;;;;;;5.10;1.27;;;9.90;89.70;;;;;;6209520;23;20095;-81
2023/03/03 12:27:30;;;;;;;4.50;1.50;;;9.80;99.90;;;;;;6184358;23;20059;-82
2023/03/03 12:30:19;;;;;;;4.95;1.73;;;9.70;99.90;;;;;;6210274;23;20031;-81
2023/03/03 12:32:59;;;;;;;3.55;1.30;;;9.50;99.90;;;;;;6210034;23;20024;-82
2023/03/03 12:35:38;;;;;;;4.53;1.33;;;9.50;75.00;;;;;;6209944;23;20031;-81
2023/03/03 12:38:22;;;;;;;4.13;1.30;;;9.40;93.80;;;;;;6185293;23;20032;-82
2023/03/03 12:41:08;;;;;;;2.90;1.20;;;9.30;36.50;;;;;;6210397;23;20016;-82
2023/03/03 12:44:11;;;;;;;3.05;1.17;;;9.30;64.30;;;;;;6210174;23;20451;-81
2023/03/03 12:46:45;;;;;;;5.22;1.60;;;9.40;94.10;;;;;;6210232;23;20102;-83
2023/03/03 12:49:11;;;;;;;3.38;0.88;;;9.40;84.30;;;;;;6210153;23;20062;-82
2023/03/03 12:51:49;;;;;;;2.67;0.98;;;9.40;71.50;;;;;;6210171;23;20340;-83
2023/03/03 12:54:59;;;;;;;5.90;0.90;;;9.30;40.90;;;;;;6209304;23;20522;-81
2023/03/03 12:57:36;;;;;;;3.03;1.20;;;9.20;1.00;;;;;;6185330;23;20029;-81
2023/03/03 13:00:02;;;;;;;7.35;1.30;;;9.10;21.50;;;;;;6209707;23;20324;-81
2023/03/03 13:02:59;;;;;;;3.30;0.77;;;9.10;47.30;;;;;;6210197;23;20020;-82
2023/03/03 13:05:50;;;;;;;5.07;0.88;;;9.20;1.00;;;;;;6187005;23;20025;-82
2023/03/03 13:08:32;;;;;;;4.93;1.08;;;9.30;1.00;;;;;;6209684;23;20016;-82